createdAt,value
2018-01-21T00:01:17.597Z,97.90
2018-01-21T00:03:47.478Z,97.78
2018-01-21T00:06:17.103Z,97.73
2018-01-21T00:08:47.164Z,97.85
2018-01-21T00:11:16.945Z,97.47
2018-01-21T00:13:46.765Z,97.49
2018-01-21T00:16:16.881Z,97.71
2018-01-21T00:18:46.679Z,97.89
2018-01-21T00:21:16.459Z,98.03
2018-01-21T00:23:46.251Z,98.14
2018-01-21T00:26:16.030Z,98.39
2018-01-21T00:28:45.826Z,98.70
2018-01-21T00:31:15.624Z,98.95
2018-01-21T00:33:45.477Z,99.11
2018-01-21T00:36:15.251Z,99.27
2018-01-21T00:38:45.051Z,99.41
2018-01-21T00:41:14.851Z,99.57
2018-01-21T00:43:44.652Z,99.74
2018-01-21T00:46:14.452Z,99.82
2018-01-21T00:48:44.013Z,99.85
2018-01-21T00:51:14.109Z,100.00
2018-01-21T00:53:44.017Z,100.00
2018-01-21T00:56:14.237Z,100.00
2018-01-21T00:58:44.117Z,100.00
2018-01-21T01:01:13.912Z,100.00
2018-01-21T01:03:43.725Z,100.00
2018-01-21T01:06:13.529Z,100.00
2018-01-21T01:08:43.357Z,100.00
2018-01-21T01:11:13.170Z,100.00
2018-01-21T01:13:42.968Z,100.00
2018-01-21T01:16:12.784Z,100.00
2018-01-21T01:18:42.640Z,100.00
2018-01-21T01:21:12.433Z,100.00
2018-01-21T01:23:42.238Z,100.00
2018-01-21T01:26:12.025Z,100.00
2018-01-21T01:28:41.883Z,100.00
2018-01-21T01:31:11.688Z,100.00
2018-01-21T01:33:41.499Z,100.00
2018-01-21T01:36:11.280Z,100.00
2018-01-21T01:38:41.065Z,100.00
2018-01-21T01:41:10.867Z,100.00
2018-01-21T01:43:40.677Z,100.00
2018-01-21T01:46:10.524Z,100.00
2018-01-21T01:48:39.752Z,100.00
2018-01-21T01:51:09.300Z,99.93
2018-01-21T01:53:39.095Z,99.61
2018-01-21T01:56:08.936Z,99.38
2018-01-21T01:58:38.745Z,99.45
2018-01-21T02:01:08.536Z,99.48
2018-01-21T02:03:38.364Z,99.37
2018-01-21T02:06:08.164Z,99.34
2018-01-21T02:08:37.957Z,99.29
2018-01-21T02:11:07.752Z,99.33
2018-01-21T02:13:37.534Z,99.37
2018-01-21T02:16:07.344Z,99.26
2018-01-21T02:18:37.146Z,99.17
2018-01-21T02:21:06.933Z,99.32
2018-01-21T02:23:36.728Z,99.51
2018-01-21T02:26:06.517Z,99.39
2018-01-21T02:28:36.300Z,99.13
2018-01-21T02:31:06.112Z,99.10
2018-01-21T02:33:35.914Z,99.26
2018-01-21T02:36:05.707Z,99.39
2018-01-21T02:38:35.503Z,99.48
2018-01-21T02:41:05.143Z,99.62
2018-01-21T02:43:34.935Z,99.48
2018-01-21T02:46:04.857Z,99.20
2018-01-21T02:48:34.683Z,99.26
2018-01-21T02:51:04.476Z,99.08
2018-01-21T02:53:34.247Z,98.50
2018-01-21T02:56:04.066Z,98.46
2018-01-21T02:58:33.854Z,98.66
2018-01-21T03:01:03.632Z,98.78
2018-01-21T03:03:33.416Z,99.06
2018-01-21T03:06:03.213Z,99.20
2018-01-21T03:08:32.984Z,98.89
2018-01-21T03:11:02.792Z,98.81
2018-01-21T03:13:32.582Z,99.00
2018-01-21T03:16:02.389Z,99.22
2018-01-21T03:18:32.189Z,99.13
2018-01-21T03:21:01.966Z,99.21
2018-01-21T03:23:31.745Z,99.26
2018-01-21T03:26:01.576Z,99.30
2018-01-21T03:28:31.370Z,99.33
2018-01-21T03:31:01.176Z,99.35
2018-01-21T03:33:30.952Z,99.07
2018-01-21T03:36:00.731Z,99.20
2018-01-21T03:38:30.533Z,99.23
2018-01-21T03:41:00.358Z,99.21
2018-01-21T03:43:30.135Z,99.16
2018-01-21T03:45:59.735Z,99.38
2018-01-21T03:48:29.545Z,99.48
2018-01-21T03:50:59.338Z,99.53
2018-01-21T03:53:29.128Z,99.72
2018-01-21T03:55:58.921Z,99.88
2018-01-21T03:58:28.714Z,100.00
2018-01-21T04:00:58.499Z,100.00
2018-01-21T04:03:28.306Z,100.00
2018-01-21T04:05:58.152Z,100.00
2018-01-21T04:08:27.965Z,100.00
2018-01-21T04:10:57.739Z,100.00
2018-01-21T04:13:27.526Z,100.00
2018-01-21T04:15:57.333Z,100.00
2018-01-21T04:18:27.180Z,99.54
2018-01-21T04:20:56.978Z,99.19
2018-01-21T04:23:26.820Z,99.16
2018-01-21T04:25:56.617Z,99.33
2018-01-21T04:28:26.410Z,99.61
2018-01-21T04:30:56.200Z,99.76
2018-01-21T04:33:25.997Z,99.96
2018-01-21T04:35:55.804Z,100.00
2018-01-21T04:38:25.626Z,100.00
2018-01-21T04:40:55.428Z,100.00
2018-01-21T04:43:25.232Z,100.00
2018-01-21T04:45:55.033Z,100.00
2018-01-21T04:48:24.847Z,100.00
2018-01-21T04:50:55.269Z,100.00
2018-01-21T04:53:25.081Z,100.00
2018-01-21T04:55:54.910Z,100.00
2018-01-21T04:58:24.715Z,100.00
2018-01-21T05:00:54.564Z,100.00
2018-01-21T05:03:24.393Z,100.00
2018-01-21T05:05:54.609Z,100.00
2018-01-21T05:08:24.439Z,100.00
2018-01-21T05:10:54.273Z,99.82
2018-01-21T05:13:24.073Z,99.27
2018-01-21T05:15:53.866Z,98.75
2018-01-21T05:18:23.692Z,98.85
2018-01-21T05:20:53.516Z,99.05
2018-01-21T05:23:23.331Z,99.16
2018-01-21T05:25:53.196Z,99.35
2018-01-21T05:28:23.018Z,99.24
2018-01-21T05:30:52.872Z,99.28
2018-01-21T05:33:22.672Z,99.21
2018-01-21T05:35:56.552Z,99.28
2018-01-21T05:38:26.347Z,99.40
2018-01-21T05:40:56.030Z,99.57
2018-01-21T05:43:26.165Z,99.56
2018-01-21T05:45:56.020Z,99.71
2018-01-21T05:48:25.688Z,99.84
2018-01-21T05:50:57.318Z,99.82
2018-01-21T05:53:27.169Z,99.89
2018-01-21T05:55:57.002Z,99.87
2018-01-21T05:58:26.821Z,99.86
2018-01-21T06:00:56.659Z,99.82
2018-01-21T06:03:26.483Z,99.87
2018-01-21T06:05:55.950Z,99.85
2018-01-21T06:08:25.786Z,99.69
2018-01-21T06:10:55.595Z,99.77
2018-01-21T06:13:26.001Z,99.79
2018-01-21T06:15:55.818Z,99.80
2018-01-21T06:18:25.651Z,99.73
2018-01-21T06:20:55.311Z,99.49
2018-01-21T06:23:25.089Z,99.80
2018-01-21T06:25:54.939Z,99.91
2018-01-21T06:28:24.750Z,99.97
2018-01-21T06:30:54.589Z,99.49
2018-01-21T06:33:24.394Z,99.41
2018-01-21T06:35:54.212Z,99.48
2018-01-21T06:38:24.060Z,99.55
2018-01-21T06:40:53.941Z,99.50
2018-01-21T06:43:23.754Z,99.63
2018-01-21T06:45:53.552Z,99.94
2018-01-21T06:48:26.215Z,100.00
2018-01-21T06:50:56.182Z,99.94
2018-01-21T06:53:26.132Z,99.93
2018-01-21T06:55:58.884Z,99.76
2018-01-21T06:58:31.741Z,99.74
2018-01-21T07:01:02.085Z,99.94
2018-01-21T07:03:32.009Z,99.90
2018-01-21T07:06:01.826Z,100.00
2018-01-21T07:08:31.724Z,100.00
2018-01-21T07:11:01.643Z,99.92
2018-01-21T07:13:31.512Z,100.00
2018-01-21T07:16:01.465Z,99.94
2018-01-21T07:18:31.405Z,99.94
2018-01-21T07:21:01.243Z,100.00
2018-01-21T07:23:31.086Z,99.87
2018-01-21T07:26:01.051Z,99.23
2018-01-21T07:28:30.917Z,99.41
2018-01-21T07:31:00.783Z,98.72
2018-01-21T07:33:30.661Z,98.57
2018-01-21T07:36:00.514Z,98.35
2018-01-21T07:38:30.348Z,98.18
2018-01-21T07:41:00.284Z,97.98
2018-01-21T07:43:30.116Z,98.33
2018-01-21T07:46:08.367Z,98.29
2018-01-21T07:48:41.113Z,98.28
2018-01-21T07:51:10.888Z,98.33
2018-01-21T07:53:40.728Z,98.06
2018-01-21T07:56:19.860Z,98.27
2018-01-21T07:58:51.086Z,98.24
2018-01-21T08:01:20.928Z,98.25
2018-01-21T08:03:50.796Z,98.62
2018-01-21T08:06:20.728Z,98.02
2018-01-21T08:08:51.050Z,97.82
2018-01-21T08:11:22.293Z,97.53
2018-01-21T08:13:52.106Z,97.24
2018-01-21T08:16:21.947Z,97.30
2018-01-21T08:18:51.737Z,97.61
2018-01-21T08:21:21.569Z,97.34
2018-01-21T08:23:51.396Z,97.31
2018-01-21T08:26:21.322Z,97.34
2018-01-21T08:28:51.296Z,97.06
2018-01-21T08:31:21.108Z,96.94
2018-01-21T08:33:56.314Z,97.58
2018-01-21T08:36:31.515Z,97.89
2018-01-21T08:39:07.606Z,96.92
2018-01-21T08:41:39.212Z,96.51
2018-01-21T08:44:09.141Z,96.32
2018-01-21T08:46:39.166Z,96.84
2018-01-21T08:49:08.953Z,96.74
2018-01-21T08:51:38.844Z,97.00
2018-01-21T08:54:08.665Z,96.60
2018-01-21T08:56:38.519Z,97.20
2018-01-21T08:59:08.381Z,97.50
2018-01-21T09:01:38.161Z,97.53
2018-01-21T09:04:07.982Z,97.84
2018-01-21T09:06:37.790Z,96.37
2018-01-21T09:09:07.624Z,96.94
2018-01-21T09:11:37.757Z,96.93
2018-01-21T09:14:07.533Z,96.53
2018-01-21T09:16:37.414Z,96.92
2018-01-21T09:19:07.355Z,97.84
2018-01-21T09:21:37.154Z,97.43
2018-01-21T09:24:06.946Z,97.56
2018-01-21T09:26:36.758Z,97.68
2018-01-21T09:29:06.595Z,97.30
2018-01-21T09:31:36.442Z,96.32
2018-01-21T09:34:06.260Z,95.71
2018-01-21T09:36:36.073Z,97.17
2018-01-21T09:39:05.405Z,96.85
2018-01-21T09:41:35.191Z,95.77
2018-01-21T09:44:04.982Z,97.14
2018-01-21T09:46:34.791Z,97.66
2018-01-21T09:49:04.592Z,96.56
2018-01-21T09:51:34.405Z,96.97
2018-01-21T09:54:04.464Z,96.13
2018-01-21T09:56:34.289Z,97.25
2018-01-21T09:59:04.066Z,96.84
2018-01-21T10:01:33.868Z,97.86
2018-01-21T10:04:03.652Z,97.19
2018-01-21T10:06:33.458Z,97.94
2018-01-21T10:09:07.208Z,97.41
2018-01-21T10:11:37.012Z,95.82
2018-01-21T10:14:06.857Z,97.02
2018-01-21T10:16:36.661Z,98.29
2018-01-21T10:19:06.462Z,98.45
2018-01-21T10:21:36.281Z,95.40
2018-01-21T10:24:06.128Z,96.05
2018-01-21T10:26:35.924Z,94.92
2018-01-21T10:29:05.712Z,95.22
2018-01-21T10:31:35.510Z,92.60
2018-01-21T10:34:05.333Z,92.53
2018-01-21T10:36:35.377Z,93.26
2018-01-21T10:39:04.668Z,94.64
2018-01-21T10:41:34.484Z,92.98
2018-01-21T10:44:04.340Z,93.07
2018-01-21T10:46:34.160Z,94.02
2018-01-21T10:49:04.447Z,94.67
2018-01-21T10:51:34.111Z,94.20
2018-01-21T10:54:04.669Z,94.32
2018-01-21T10:56:34.998Z,93.36
2018-01-21T10:59:04.772Z,93.55
2018-01-21T11:01:34.608Z,92.74
2018-01-21T11:04:04.424Z,93.00
2018-01-21T11:06:34.327Z,92.40
2018-01-21T11:09:03.552Z,92.47
2018-01-21T11:11:33.091Z,91.69
2018-01-21T11:14:02.907Z,91.23
2018-01-21T11:16:32.759Z,92.75
2018-01-21T11:19:02.568Z,91.51
2018-01-21T11:21:32.398Z,91.89
2018-01-21T11:24:02.243Z,92.01
2018-01-21T11:26:32.108Z,91.35
2018-01-21T11:29:01.990Z,91.61
2018-01-21T11:31:31.806Z,92.65
2018-01-21T11:34:02.630Z,92.99
2018-01-21T11:36:32.881Z,92.35
2018-01-21T11:39:02.771Z,93.20
2018-01-21T11:41:32.326Z,93.04
2018-01-21T11:44:02.726Z,93.41
2018-01-21T11:46:35.383Z,93.49
2018-01-21T11:49:05.981Z,93.45
2018-01-21T11:51:37.578Z,93.53
2018-01-21T11:54:07.357Z,93.45
2018-01-21T11:56:37.154Z,92.69
2018-01-21T11:59:06.959Z,93.18
2018-01-21T12:01:36.860Z,93.28
2018-01-21T12:04:06.713Z,94.16
2018-01-21T12:06:37.003Z,93.20
2018-01-21T12:09:07.902Z,93.52
2018-01-21T12:11:38.553Z,93.92
2018-01-21T12:14:08.397Z,94.13
2018-01-21T12:16:38.208Z,95.07
2018-01-21T12:19:08.018Z,94.90
2018-01-21T12:21:37.793Z,95.04
2018-01-21T12:24:07.626Z,95.31
2018-01-21T12:26:37.822Z,96.19
2018-01-21T12:29:07.690Z,96.25
2018-01-21T12:31:39.727Z,95.89
2018-01-21T12:34:09.660Z,95.46
2018-01-21T12:36:39.508Z,95.16
2018-01-21T12:39:09.408Z,94.91
2018-01-21T12:41:40.149Z,95.59
2018-01-21T12:44:10.029Z,95.43
2018-01-21T12:46:39.910Z,95.37
2018-01-21T12:49:09.763Z,95.95
2018-01-21T12:51:39.586Z,96.80
2018-01-21T12:54:09.825Z,96.93
2018-01-21T12:56:43.782Z,96.17
2018-01-21T12:59:13.688Z,95.83
2018-01-21T13:01:43.645Z,96.12
2018-01-21T13:04:13.468Z,96.11
2018-01-21T13:06:44.285Z,96.28
2018-01-21T13:09:14.112Z,95.74
2018-01-21T13:11:44.060Z,96.45
2018-01-21T13:14:14.153Z,95.82
2018-01-21T13:16:44.515Z,96.10
2018-01-21T13:19:20.135Z,96.75
2018-01-21T13:21:51.041Z,96.77
2018-01-21T13:24:21.869Z,97.59
2018-01-21T13:26:51.864Z,98.12
2018-01-21T13:29:21.782Z,98.26
2018-01-21T13:31:51.608Z,97.87
2018-01-21T13:34:21.741Z,98.96
2018-01-21T13:36:52.786Z,99.72
2018-01-21T13:39:27.395Z,100.00
2018-01-21T13:41:57.308Z,100.00
2018-01-21T13:44:29.821Z,99.19
2018-01-21T13:47:00.215Z,99.61
2018-01-21T13:49:30.311Z,99.44
2018-01-21T13:52:00.188Z,99.10
2018-01-21T13:54:30.393Z,98.28
2018-01-21T13:57:00.504Z,97.90
2018-01-21T14:04:38.277Z,100.00
2018-01-21T14:07:08.302Z,100.00
2018-01-21T14:09:39.818Z,98.26
2018-01-21T14:12:12.076Z,97.46
2018-01-21T14:14:42.095Z,98.12
2018-01-21T14:17:12.080Z,97.79
2018-01-21T14:19:44.835Z,96.63
2018-01-21T14:22:14.953Z,98.85
2018-01-21T14:24:48.333Z,100.00
2018-01-21T14:27:18.458Z,99.17
2018-01-21T14:29:48.419Z,99.39
2018-01-21T14:32:18.242Z,98.69
2018-01-21T14:34:48.132Z,98.39
2018-01-21T14:37:17.960Z,99.65
2018-01-21T14:39:47.808Z,99.18
2018-01-21T14:42:17.648Z,99.99
2018-01-21T14:44:47.543Z,100.00
2018-01-21T14:47:17.578Z,99.73
2018-01-21T14:49:47.367Z,99.75
2018-01-21T14:52:17.179Z,100.00
2018-01-21T14:54:47.392Z,100.00
2018-01-21T14:57:17.297Z,100.00
2018-01-21T14:59:47.177Z,100.00
2018-01-21T15:02:17.121Z,100.00
2018-01-21T15:04:47.160Z,100.00
2018-01-21T15:07:16.893Z,100.00
2018-01-21T15:09:47.441Z,100.00
2018-01-21T15:12:17.567Z,100.00
2018-01-21T15:14:47.584Z,100.00
2018-01-21T15:17:17.461Z,100.00
2018-01-21T15:19:48.165Z,99.97
2018-01-21T15:22:18.157Z,100.00
2018-01-21T15:24:48.226Z,99.76
2018-01-21T15:27:18.137Z,100.00
2018-01-21T15:29:48.319Z,100.00
2018-01-21T15:32:18.351Z,100.00
2018-01-21T15:34:48.769Z,100.00
2018-01-21T15:37:18.562Z,100.00
2018-01-21T15:39:48.535Z,100.00
2018-01-21T15:42:18.347Z,100.00
2018-01-21T15:44:48.207Z,100.00
2018-01-21T15:47:18.065Z,100.00
2018-01-21T15:49:48.258Z,100.00
2018-01-21T15:52:18.062Z,100.00
2018-01-21T15:54:48.062Z,100.00
2018-01-21T15:57:17.893Z,100.00
2018-01-21T15:59:47.713Z,100.00
2018-01-21T16:02:17.499Z,100.00
2018-01-21T16:04:47.325Z,100.00
2018-01-21T16:07:17.120Z,100.00
2018-01-21T16:09:47.126Z,100.00
2018-01-21T16:12:16.942Z,100.00
2018-01-21T16:14:46.800Z,100.00
2018-01-21T16:17:16.621Z,100.00
2018-01-21T16:19:46.908Z,100.00
2018-01-21T16:22:16.717Z,100.00
2018-01-21T16:24:46.598Z,100.00
2018-01-21T16:27:16.999Z,100.00
2018-01-21T16:29:46.804Z,100.00
2018-01-21T16:32:16.670Z,100.00
2018-01-21T16:34:46.559Z,100.00
2018-01-21T16:37:27.465Z,100.00
2018-01-21T16:39:56.981Z,100.00
2018-01-21T16:42:26.807Z,100.00
2018-01-21T16:44:56.625Z,100.00
2018-01-21T16:47:26.412Z,100.00
2018-01-21T16:49:56.082Z,100.00
2018-01-21T16:52:27.508Z,100.00
2018-01-21T16:54:57.310Z,100.00
2018-01-21T16:57:27.135Z,100.00
2018-01-21T16:59:56.930Z,100.00
2018-01-21T17:02:26.756Z,100.00
2018-01-21T17:04:56.682Z,100.00
2018-01-21T17:07:26.525Z,100.00
2018-01-21T17:09:56.317Z,100.00
2018-01-21T17:12:26.166Z,100.00
2018-01-21T17:14:55.987Z,100.00
2018-01-21T17:17:27.452Z,100.00
2018-01-21T17:19:57.097Z,100.00
2018-01-21T17:22:26.761Z,100.00
2018-01-21T17:24:56.560Z,100.00
2018-01-21T17:27:26.443Z,100.00
2018-01-21T17:29:56.255Z,100.00
2018-01-21T17:32:26.090Z,100.00
2018-01-21T17:34:55.929Z,100.00
2018-01-21T17:37:25.800Z,100.00
2018-01-21T17:39:55.627Z,100.00
2018-01-21T17:42:28.877Z,100.00
2018-01-21T17:44:59.493Z,100.00
2018-01-21T17:47:29.565Z,100.00
2018-01-21T17:49:59.397Z,100.00
2018-01-21T17:52:29.247Z,100.00
2018-01-21T17:54:59.050Z,100.00
2018-01-21T17:57:28.902Z,100.00
2018-01-21T17:59:58.722Z,100.00
2018-01-21T18:02:32.964Z,100.00
2018-01-21T18:05:02.823Z,100.00
2018-01-21T18:07:32.678Z,100.00
2018-01-21T18:10:02.489Z,100.00
2018-01-21T18:12:32.307Z,100.00
2018-01-21T18:15:02.167Z,100.00
2018-01-21T18:17:32.028Z,100.00
2018-01-21T18:20:01.824Z,100.00
2018-01-21T18:22:31.638Z,100.00
2018-01-21T18:25:01.560Z,100.00
2018-01-21T18:27:31.568Z,100.00
2018-01-21T18:30:01.397Z,100.00
2018-01-21T18:32:31.225Z,100.00
2018-01-21T18:35:01.080Z,100.00
2018-01-21T18:37:30.932Z,100.00
2018-01-21T18:40:00.804Z,100.00
2018-01-21T18:42:30.721Z,100.00
2018-01-21T18:45:00.700Z,100.00
2018-01-21T18:47:30.370Z,100.00
2018-01-21T18:50:00.413Z,100.00
2018-01-21T18:52:30.440Z,100.00
2018-01-21T18:55:00.283Z,100.00
2018-01-21T18:57:30.225Z,100.00
2018-01-21T19:00:00.129Z,100.00
2018-01-21T19:02:29.975Z,100.00
2018-01-21T19:04:59.806Z,100.00
2018-01-21T19:07:30.533Z,100.00
2018-01-21T19:10:00.574Z,100.00
2018-01-21T19:12:30.441Z,100.00
2018-01-21T19:15:00.622Z,100.00
2018-01-21T19:17:30.797Z,100.00
2018-01-21T19:20:00.730Z,100.00
2018-01-21T19:22:30.540Z,100.00
2018-01-21T19:25:00.319Z,100.00
2018-01-21T19:27:30.825Z,100.00
2018-01-21T19:30:00.656Z,100.00
2018-01-21T19:32:30.493Z,100.00
2018-01-21T19:35:00.553Z,100.00
2018-01-21T19:37:30.549Z,100.00
2018-01-21T19:40:05.711Z,100.00
2018-01-21T19:42:51.034Z,100.00
2018-01-21T19:45:20.702Z,100.00
2018-01-21T19:47:50.388Z,100.00
2018-01-21T19:50:20.379Z,100.00
2018-01-21T19:52:50.235Z,100.00
2018-01-21T19:55:20.038Z,100.00
2018-01-21T19:57:49.935Z,100.00
2018-01-21T20:00:19.830Z,100.00
2018-01-21T20:02:51.217Z,100.00
2018-01-21T20:05:21.202Z,100.00
2018-01-21T20:07:50.959Z,100.00
2018-01-21T20:10:20.903Z,100.00
2018-01-21T20:12:56.086Z,100.00
2018-01-21T20:15:26.066Z,100.00
2018-01-21T20:17:55.986Z,100.00
2018-01-21T20:20:26.052Z,100.00
2018-01-21T20:22:55.940Z,100.00
2018-01-21T20:25:26.037Z,100.00
2018-01-21T20:27:56.305Z,100.00
2018-01-21T20:30:26.317Z,100.00
2018-01-21T20:32:57.954Z,100.00
2018-01-21T20:38:06.014Z,100.00
2018-01-21T20:40:37.164Z,100.00
2018-01-21T20:43:07.100Z,100.00
2018-01-21T20:45:37.200Z,100.00
2018-01-21T20:48:07.207Z,100.00
2018-01-21T20:50:37.219Z,100.00
2018-01-21T20:53:12.650Z,100.00
2018-01-21T20:55:42.983Z,100.00
2018-01-21T20:58:13.410Z,100.00
2018-01-21T21:00:43.659Z,100.00
2018-01-21T21:03:13.851Z,100.00
2018-01-21T21:05:44.248Z,100.00
2018-01-21T21:08:14.227Z,100.00
2018-01-21T21:10:44.257Z,100.00
2018-01-21T21:13:14.168Z,100.00
2018-01-21T21:15:44.100Z,100.00
2018-01-21T21:18:14.394Z,100.00
2018-01-21T21:20:45.028Z,100.00
2018-01-21T21:23:15.192Z,100.00
2018-01-21T21:25:45.577Z,100.00
2018-01-21T21:28:19.696Z,100.00
2018-01-21T21:30:53.325Z,100.00
2018-01-21T21:33:23.565Z,100.00
2018-01-21T21:35:54.882Z,100.00
2018-01-21T21:41:29.906Z,100.00
2018-01-21T21:44:00.089Z,100.00
2018-01-21T21:49:56.735Z,100.00
2018-01-21T21:52:27.790Z,100.00
2018-01-21T22:20:54.853Z,100.00
2018-01-21T22:23:24.926Z,100.00
2018-01-21T22:25:54.904Z,100.00
2018-01-21T22:28:24.900Z,100.00
2018-01-21T22:30:54.928Z,100.00
2018-01-21T22:33:25.304Z,100.00
2018-01-21T22:35:55.894Z,100.00
2018-01-21T22:38:27.093Z,100.00
2018-01-21T22:40:57.028Z,100.00
2018-01-21T22:43:27.384Z,100.00
2018-01-21T22:45:57.478Z,100.00
2018-01-21T22:48:27.562Z,100.00
2018-01-21T22:50:57.523Z,100.00
2018-01-21T22:53:27.855Z,100.00
2018-01-21T22:56:05.280Z,100.00
2018-01-21T22:58:35.241Z,100.00
2018-01-21T23:03:39.274Z,100.00
2018-01-21T23:06:09.254Z,100.00
2018-01-21T23:08:39.439Z,100.00
2018-01-21T23:11:10.331Z,100.00
2018-01-21T23:13:41.301Z,100.00
2018-01-21T23:16:11.875Z,100.00
2018-01-21T23:18:41.563Z,100.00
2018-01-21T23:21:11.914Z,100.00
2018-01-21T23:23:42.817Z,100.00
2018-01-21T23:26:12.957Z,100.00
2018-01-21T23:28:42.965Z,100.00
2018-01-21T23:31:12.893Z,100.00
2018-01-21T23:33:43.326Z,100.00
2018-01-21T23:36:13.276Z,100.00
2018-01-21T23:38:43.273Z,100.00
2018-01-21T23:41:13.276Z,100.00
2018-01-21T23:43:43.287Z,100.00
2018-01-21T23:46:13.172Z,100.00
2018-01-21T23:48:43.106Z,100.00
2018-01-21T23:51:13.243Z,100.00
2018-01-21T23:53:43.640Z,100.00
2018-01-21T23:56:13.514Z,100.00
2018-01-21T23:58:43.500Z,100.00
